createdAt,value
2018-08-17T00:00:31.799Z,19.40
2018-08-17T00:03:00.875Z,19.40
2018-08-17T00:05:29.831Z,19.40
2018-08-17T00:07:58.702Z,19.30
2018-08-17T00:10:27.543Z,19.30
2018-08-17T00:12:56.377Z,19.30
2018-08-17T00:15:25.210Z,19.20
2018-08-17T00:17:54.063Z,19.10
2018-08-17T00:20:22.939Z,19.10
2018-08-17T00:22:51.836Z,19.10
2018-08-17T00:25:20.715Z,19.10
2018-08-17T00:27:49.562Z,19.10
2018-08-17T00:30:18.427Z,19.00
2018-08-17T00:32:47.279Z,18.90
2018-08-17T00:35:16.384Z,18.90
2018-08-17T00:37:45.220Z,18.90
2018-08-17T00:40:14.070Z,18.90
2018-08-17T00:42:42.931Z,18.90
2018-08-17T00:45:11.854Z,18.90
2018-08-17T00:47:40.736Z,18.90
2018-08-17T00:50:09.603Z,18.90
2018-08-17T00:52:38.411Z,18.90
2018-08-17T00:55:07.392Z,18.90
2018-08-17T00:57:36.223Z,18.90
2018-08-17T01:00:05.621Z,18.80
2018-08-17T01:02:34.504Z,18.80
2018-08-17T01:05:03.458Z,18.80
2018-08-17T01:07:32.355Z,18.80
2018-08-17T01:10:01.203Z,18.80
2018-08-17T01:12:30.178Z,18.80
2018-08-17T01:14:59.050Z,18.80
2018-08-17T01:17:27.884Z,18.70
2018-08-17T01:19:56.899Z,18.60
2018-08-17T01:22:25.759Z,18.60
2018-08-17T01:24:54.603Z,18.60
2018-08-17T01:27:23.411Z,18.60
2018-08-17T01:29:52.236Z,18.70
2018-08-17T01:32:21.071Z,18.70
2018-08-17T01:34:49.899Z,18.70
2018-08-17T01:37:18.748Z,18.70
2018-08-17T01:39:47.562Z,18.70
2018-08-17T01:42:16.399Z,18.80
2018-08-17T01:44:45.247Z,18.80
2018-08-17T01:47:14.091Z,18.80
2018-08-17T01:49:42.941Z,18.70
2018-08-17T01:52:11.746Z,18.70
2018-08-17T01:54:40.587Z,18.60
2018-08-17T01:57:09.451Z,18.60
2018-08-17T01:59:38.287Z,18.60
2018-08-17T02:02:07.220Z,18.60
2018-08-17T02:04:36.040Z,18.50
2018-08-17T02:07:04.975Z,18.60
2018-08-17T02:09:33.910Z,18.50
2018-08-17T02:12:02.747Z,18.50
2018-08-17T02:14:31.587Z,18.40
2018-08-17T02:17:00.415Z,18.40
2018-08-17T02:19:29.247Z,18.40
2018-08-17T02:21:58.099Z,18.40
2018-08-17T02:24:27.033Z,18.40
2018-08-17T02:26:56.052Z,18.40
2018-08-17T02:29:24.894Z,18.40
2018-08-17T02:31:53.705Z,18.40
2018-08-17T02:34:22.563Z,18.40
2018-08-17T02:36:51.376Z,18.40
2018-08-17T02:39:20.228Z,18.40
2018-08-17T02:41:49.051Z,18.40
2018-08-17T02:44:17.885Z,18.40
2018-08-17T02:46:46.772Z,18.40
2018-08-17T02:49:15.631Z,18.40
2018-08-17T02:51:44.500Z,18.40
2018-08-17T02:54:13.332Z,18.40
2018-08-17T02:56:42.159Z,18.30
2018-08-17T02:59:10.992Z,18.30
2018-08-17T03:01:39.859Z,18.30
2018-08-17T03:04:08.713Z,18.30
2018-08-17T03:06:37.567Z,18.30
2018-08-17T03:09:09.544Z,18.20
2018-08-17T03:11:38.416Z,18.20
2018-08-17T03:14:07.615Z,18.20
2018-08-17T03:16:36.490Z,18.20
2018-08-17T03:19:05.596Z,18.20
2018-08-17T03:21:34.451Z,18.20
2018-08-17T03:24:03.289Z,18.20
2018-08-17T03:26:32.120Z,18.20
2018-08-17T03:29:00.971Z,18.10
2018-08-17T03:31:29.823Z,18.10
2018-08-17T03:33:58.687Z,18.10
2018-08-17T03:36:27.480Z,18.20
2018-08-17T03:38:56.306Z,18.10
2018-08-17T03:41:25.147Z,18.10
2018-08-17T03:43:53.979Z,17.90
2018-08-17T03:46:22.808Z,17.90
2018-08-17T03:48:51.695Z,17.90
2018-08-17T03:51:20.532Z,17.90
2018-08-17T03:53:49.379Z,17.80
2018-08-17T03:56:18.232Z,17.80
2018-08-17T03:58:47.085Z,17.80
2018-08-17T04:01:15.933Z,17.70
2018-08-17T04:03:44.789Z,17.80
2018-08-17T04:06:13.638Z,17.70
2018-08-17T04:08:42.464Z,17.70
2018-08-17T04:11:11.321Z,17.70
2018-08-17T04:13:40.150Z,17.70
2018-08-17T04:16:08.984Z,17.70
2018-08-17T04:18:38.268Z,17.70
2018-08-17T04:21:07.253Z,17.50
2018-08-17T04:23:36.131Z,17.60
2018-08-17T04:26:05.031Z,17.70
2018-08-17T04:28:33.886Z,17.70
2018-08-17T04:31:02.730Z,17.80
2018-08-17T04:33:31.623Z,17.70
2018-08-17T04:36:00.482Z,17.70
2018-08-17T04:38:29.325Z,17.70
2018-08-17T04:40:58.167Z,17.70
2018-08-17T04:43:27.019Z,17.70
2018-08-17T04:45:55.853Z,17.70
2018-08-17T04:48:24.687Z,17.80
2018-08-17T04:50:53.537Z,17.80
2018-08-17T04:53:22.378Z,17.80
2018-08-17T04:55:51.263Z,17.90
2018-08-17T04:58:20.092Z,17.80
2018-08-17T05:00:48.979Z,17.90
2018-08-17T05:03:17.991Z,17.90
2018-08-17T05:05:46.848Z,18.00
2018-08-17T05:08:15.803Z,18.10
2018-08-17T05:10:44.763Z,18.10
2018-08-17T05:13:13.631Z,18.00
2018-08-17T05:15:42.615Z,18.00
2018-08-17T05:18:11.526Z,18.10
2018-08-17T05:20:40.365Z,18.20
2018-08-17T05:23:09.553Z,18.20
2018-08-17T05:25:38.394Z,18.30
2018-08-17T05:28:07.283Z,18.30
2018-08-17T05:30:36.154Z,18.40
2018-08-17T05:33:05.120Z,18.40
2018-08-17T05:35:33.940Z,18.50
2018-08-17T05:38:02.784Z,18.50
2018-08-17T05:40:31.633Z,18.60
2018-08-17T05:43:00.483Z,18.70
2018-08-17T05:45:29.363Z,18.70
2018-08-17T05:47:58.176Z,18.70
2018-08-17T05:50:31.092Z,18.70
2018-08-17T05:53:00.398Z,18.70
2018-08-17T05:55:29.291Z,18.70
2018-08-17T05:57:58.188Z,18.70
2018-08-17T06:00:27.075Z,18.80
2018-08-17T06:02:56.020Z,18.80
2018-08-17T06:05:24.888Z,18.90
2018-08-17T06:07:53.752Z,18.90
2018-08-17T06:10:22.612Z,19.00
2018-08-17T06:12:51.572Z,19.00
2018-08-17T06:15:20.488Z,19.00
2018-08-17T06:17:49.419Z,19.00
2018-08-17T06:20:18.299Z,19.00
2018-08-17T06:22:47.163Z,19.10
2018-08-17T06:25:16.165Z,19.10
2018-08-17T06:27:45.014Z,19.20
2018-08-17T06:30:14.484Z,19.10
2018-08-17T06:32:43.403Z,19.20
2018-08-17T06:35:13.495Z,19.20
2018-08-17T06:37:43.096Z,19.30
2018-08-17T06:40:12.106Z,19.30
2018-08-17T06:42:40.974Z,19.30
2018-08-17T06:45:11.517Z,19.30
2018-08-17T06:47:40.439Z,19.40
2018-08-17T06:50:10.612Z,19.40
2018-08-17T06:52:40.432Z,19.40
2018-08-17T06:55:10.796Z,19.40
2018-08-17T06:57:40.160Z,19.50
2018-08-17T07:00:13.493Z,19.50
2018-08-17T07:02:43.555Z,19.60
2018-08-17T07:05:12.518Z,19.60
2018-08-17T07:07:41.583Z,19.70
2018-08-17T07:10:11.879Z,19.70
2018-08-17T07:12:41.498Z,19.80
2018-08-17T07:15:10.574Z,19.90
2018-08-17T07:17:39.993Z,19.90
2018-08-17T07:20:10.712Z,19.90
2018-08-17T07:22:40.147Z,19.90
2018-08-17T07:25:09.531Z,19.90
2018-08-17T07:27:38.567Z,20.00
2018-08-17T07:30:08.689Z,20.00
2018-08-17T07:32:37.494Z,20.10
2018-08-17T07:35:08.523Z,20.10
2018-08-17T07:37:37.412Z,20.10
2018-08-17T07:40:06.575Z,20.20
2018-08-17T07:42:35.459Z,20.30
2018-08-17T07:45:05.065Z,20.30
2018-08-17T07:47:33.951Z,20.40
2018-08-17T07:50:02.831Z,20.50
2018-08-17T07:52:31.678Z,20.60
2018-08-17T07:55:00.755Z,20.70
2018-08-17T07:57:29.611Z,20.70
2018-08-17T07:59:58.451Z,20.80
2018-08-17T08:02:27.299Z,20.90
2018-08-17T08:04:56.139Z,20.90
2018-08-17T08:07:24.951Z,21.00
2018-08-17T08:09:53.796Z,21.10
2018-08-17T08:12:22.663Z,21.30
2018-08-17T08:14:51.531Z,21.40
2018-08-17T08:17:20.355Z,21.50
2018-08-17T08:20:06.084Z,21.50
2018-08-17T08:22:34.928Z,21.50
2018-08-17T08:25:04.078Z,21.60
2018-08-17T08:27:33.019Z,21.70
2018-08-17T08:30:01.901Z,21.70
2018-08-17T08:32:30.840Z,21.70
2018-08-17T08:34:59.745Z,21.90
2018-08-17T08:37:28.589Z,21.90
2018-08-17T08:39:57.506Z,22.10
2018-08-17T08:42:26.283Z,22.20
2018-08-17T08:44:55.154Z,22.30
2018-08-17T08:47:24.040Z,22.50
2018-08-17T08:49:52.942Z,22.60
2018-08-17T08:52:21.755Z,22.60
2018-08-17T08:54:50.598Z,22.60
2018-08-17T08:57:19.445Z,22.60
2018-08-17T08:59:48.343Z,22.60
2018-08-17T09:02:17.208Z,22.70
2018-08-17T09:04:46.023Z,22.80
2018-08-17T09:07:14.861Z,22.80
2018-08-17T09:09:43.743Z,22.90
2018-08-17T09:12:13.232Z,22.90
2018-08-17T09:14:42.107Z,22.90
2018-08-17T09:17:10.924Z,22.90
2018-08-17T09:19:39.776Z,23.00
2018-08-17T09:22:08.687Z,23.30
2018-08-17T09:24:37.776Z,23.30
2018-08-17T09:27:06.743Z,23.30
2018-08-17T09:29:35.645Z,23.60
2018-08-17T09:32:04.564Z,23.80
2018-08-17T09:34:33.383Z,23.80
2018-08-17T09:37:02.278Z,23.80
2018-08-17T09:39:31.087Z,24.00
2018-08-17T09:41:59.959Z,24.00
2018-08-17T09:44:28.771Z,23.90
2018-08-17T09:46:57.578Z,24.00
2018-08-17T09:49:26.390Z,24.00
2018-08-17T09:51:55.248Z,24.00
2018-08-17T09:54:24.059Z,24.10
2018-08-17T09:56:52.894Z,24.30
2018-08-17T09:59:21.723Z,24.40
2018-08-17T10:01:56.182Z,24.50
2018-08-17T10:04:30.612Z,24.60
2018-08-17T10:07:05.242Z,24.70
2018-08-17T10:09:39.775Z,24.70
2018-08-17T10:12:11.465Z,24.80
2018-08-17T10:14:40.295Z,24.90
2018-08-17T10:17:09.141Z,25.10
2018-08-17T10:19:37.979Z,25.20
2018-08-17T10:22:07.129Z,25.30
2018-08-17T10:24:35.736Z,25.40
2018-08-17T10:27:04.623Z,25.50
2018-08-17T10:29:33.473Z,25.40
2018-08-17T10:32:02.316Z,25.40
2018-08-17T10:34:31.098Z,25.20
2018-08-17T10:36:59.980Z,25.30
2018-08-17T10:39:28.801Z,25.30
2018-08-17T10:41:57.631Z,25.30
2018-08-17T10:44:26.570Z,25.40
2018-08-17T10:46:55.412Z,25.40
2018-08-17T10:49:24.223Z,25.40
2018-08-17T10:51:56.000Z,25.50
2018-08-17T10:54:25.495Z,25.60
2018-08-17T10:56:54.327Z,25.80
2018-08-17T10:59:23.149Z,25.90
2018-08-17T11:01:51.971Z,26.00
2018-08-17T11:04:20.771Z,26.00
2018-08-17T11:06:49.607Z,26.20
2018-08-17T11:09:18.447Z,26.40
2018-08-17T11:11:47.319Z,26.50
2018-08-17T11:14:16.112Z,26.60
2018-08-17T11:16:44.938Z,26.70
2018-08-17T11:19:13.784Z,26.70
2018-08-17T11:21:42.608Z,26.90
2018-08-17T11:24:11.408Z,27.00
2018-08-17T11:26:40.265Z,27.00
2018-08-17T11:29:09.078Z,27.00
2018-08-17T11:31:37.897Z,27.10
2018-08-17T11:34:06.777Z,27.20
2018-08-17T11:36:35.680Z,27.30
2018-08-17T11:39:06.128Z,27.40
2018-08-17T11:41:34.968Z,27.40
2018-08-17T11:44:07.995Z,27.60
2018-08-17T11:46:36.824Z,27.70
2018-08-17T11:49:05.694Z,27.80
2018-08-17T11:51:38.669Z,27.90
2018-08-17T11:54:10.031Z,28.00
2018-08-17T11:56:38.884Z,28.10
2018-08-17T11:59:07.740Z,28.10
2018-08-17T12:01:36.605Z,28.10
2018-08-17T12:04:05.541Z,28.30
2018-08-17T12:06:34.399Z,28.50
2018-08-17T12:09:04.299Z,28.60
2018-08-17T12:11:33.136Z,28.90
2018-08-17T12:14:01.959Z,29.20
2018-08-17T12:16:30.848Z,29.50
2018-08-17T12:18:59.659Z,29.60
2018-08-17T12:21:28.482Z,29.70
2018-08-17T12:23:57.290Z,29.90
2018-08-17T12:26:26.116Z,30.00
2018-08-17T12:28:54.943Z,30.20
2018-08-17T12:31:23.779Z,30.40
2018-08-17T12:33:52.610Z,30.50
2018-08-17T12:36:21.422Z,30.80
2018-08-17T12:38:50.214Z,31.10
2018-08-17T12:41:19.062Z,31.10
2018-08-17T12:43:47.913Z,31.10
2018-08-17T12:46:16.764Z,31.30
2018-08-17T12:48:45.604Z,31.50
2018-08-17T12:51:14.430Z,31.80
2018-08-17T12:53:43.255Z,31.80
2018-08-17T12:56:12.044Z,31.90
2018-08-17T12:58:40.891Z,32.10
2018-08-17T13:01:09.689Z,32.30
2018-08-17T13:03:38.596Z,32.40
2018-08-17T13:06:07.514Z,32.60
2018-08-17T13:08:36.335Z,32.80
2018-08-17T13:11:05.158Z,32.80
2018-08-17T13:13:34.029Z,32.90
2018-08-17T13:16:03.778Z,33.00
2018-08-17T13:18:35.411Z,33.20
2018-08-17T13:21:04.270Z,33.10
2018-08-17T13:23:33.112Z,33.30
2018-08-17T13:26:01.964Z,33.40
2018-08-17T13:28:30.810Z,33.50
2018-08-17T13:30:59.664Z,33.50
2018-08-17T13:33:28.497Z,33.70
2018-08-17T13:35:57.483Z,33.60
2018-08-17T13:38:26.355Z,33.60
2018-08-17T13:40:55.212Z,33.60
2018-08-17T13:43:24.060Z,33.60
2018-08-17T13:45:52.855Z,33.60
2018-08-17T13:48:21.699Z,33.60
2018-08-17T13:50:50.527Z,33.70
2018-08-17T13:53:19.327Z,33.80
2018-08-17T13:55:48.151Z,33.90
2018-08-17T13:58:16.984Z,33.90
2018-08-17T14:00:45.823Z,34.10
2018-08-17T14:03:14.666Z,34.10
2018-08-17T14:05:43.565Z,34.30
2018-08-17T14:08:12.412Z,34.40
2018-08-17T14:10:41.251Z,34.70
2018-08-17T14:13:10.072Z,34.80
2018-08-17T14:15:39.604Z,34.50
2018-08-17T14:18:08.531Z,34.60
2018-08-17T14:20:37.392Z,34.40
2018-08-17T14:23:06.266Z,34.40
2018-08-17T14:25:35.142Z,34.50
2018-08-17T14:28:04.105Z,34.20
2018-08-17T14:30:33.062Z,34.50
2018-08-17T14:33:01.904Z,34.70
2018-08-17T14:35:30.772Z,34.60
2018-08-17T14:37:59.623Z,34.40
2018-08-17T14:40:28.560Z,34.30
2018-08-17T14:42:57.375Z,33.90
2018-08-17T14:45:26.252Z,33.80
2018-08-17T14:47:55.211Z,33.70
2018-08-17T14:50:24.047Z,33.50
2018-08-17T14:52:52.899Z,33.30
2018-08-17T14:55:21.813Z,33.30
2018-08-17T14:57:50.653Z,33.10
2018-08-17T15:00:19.520Z,33.10
2018-08-17T15:02:48.413Z,32.70
2018-08-17T15:05:17.290Z,32.50
2018-08-17T15:07:46.169Z,32.20
2018-08-17T15:10:15.012Z,32.00
2018-08-17T15:12:43.930Z,31.60
2018-08-17T15:15:13.030Z,31.20
2018-08-17T15:17:41.939Z,31.20
2018-08-17T15:20:11.938Z,31.20
2018-08-17T15:22:41.147Z,31.10
2018-08-17T15:25:09.983Z,31.00
2018-08-17T15:27:38.864Z,30.80
2018-08-17T15:30:09.951Z,30.70
2018-08-17T15:32:39.351Z,30.70
2018-08-17T15:35:08.576Z,30.50
2018-08-17T15:37:38.155Z,30.40
2018-08-17T15:40:10.439Z,30.30
2018-08-17T15:42:39.844Z,30.00
2018-08-17T15:45:10.206Z,29.80
2018-08-17T15:47:39.163Z,29.70
2018-08-17T15:50:15.304Z,29.50
2018-08-17T15:52:44.527Z,29.40
2018-08-17T15:55:13.826Z,29.30
2018-08-17T15:57:42.850Z,29.10
2018-08-17T16:00:17.211Z,29.10
2018-08-17T16:02:46.252Z,29.30
2018-08-17T16:05:15.170Z,29.30
2018-08-17T16:07:44.060Z,29.00
2018-08-17T16:10:14.521Z,28.90
2018-08-17T16:12:43.824Z,28.80
2018-08-17T16:15:12.762Z,28.70
2018-08-17T16:17:41.581Z,28.80
2018-08-17T16:20:11.740Z,28.80
2018-08-17T16:22:41.684Z,28.90
2018-08-17T16:25:11.460Z,29.00
2018-08-17T16:27:41.384Z,28.70
2018-08-17T16:30:12.820Z,28.50
2018-08-17T16:32:42.036Z,28.50
2018-08-17T16:35:11.971Z,28.40
2018-08-17T16:37:46.287Z,28.30
2018-08-17T16:40:15.692Z,28.20
2018-08-17T16:42:48.320Z,28.30
2018-08-17T16:45:17.442Z,28.20
2018-08-17T16:47:46.371Z,28.10
2018-08-17T16:50:15.236Z,28.10
2018-08-17T16:52:44.118Z,27.80
2018-08-17T16:55:12.935Z,27.90
2018-08-17T16:57:41.774Z,28.00
2018-08-17T17:00:11.767Z,27.90
2018-08-17T17:02:40.623Z,27.80
2018-08-17T17:05:09.499Z,27.80
2018-08-17T17:07:38.323Z,27.70
2018-08-17T17:10:09.038Z,27.70
2018-08-17T17:12:37.970Z,27.60
2018-08-17T17:15:14.956Z,27.60
2018-08-17T17:17:59.746Z,27.60
2018-08-17T17:20:36.215Z,27.50
2018-08-17T17:23:06.627Z,27.50
2018-08-17T17:25:35.728Z,27.50
2018-08-17T17:29:08.010Z,27.30
2018-08-17T17:31:36.899Z,27.30
2018-08-17T17:34:06.302Z,27.40
2018-08-17T17:36:35.416Z,27.40
2018-08-17T17:39:07.554Z,27.40
2018-08-17T17:41:36.550Z,27.40
2018-08-17T17:44:05.651Z,27.30
2018-08-17T17:46:34.495Z,27.30
2018-08-17T17:49:03.424Z,27.20
2018-08-17T17:51:32.531Z,27.10
2018-08-17T17:54:01.494Z,27.20
2018-08-17T17:56:30.350Z,27.10
2018-08-17T17:59:05.454Z,27.00
2018-08-17T18:01:34.367Z,26.90
2018-08-17T18:04:03.259Z,26.80
2018-08-17T18:06:32.167Z,26.60
2018-08-17T18:09:01.645Z,26.60
2018-08-17T18:11:30.480Z,26.60
2018-08-17T18:13:59.356Z,26.60
2018-08-17T18:16:28.299Z,26.40
2018-08-17T18:18:57.200Z,26.30
2018-08-17T18:21:31.087Z,26.20
2018-08-17T18:24:05.720Z,26.20
2018-08-17T18:26:34.922Z,26.10
2018-08-17T18:29:03.907Z,26.00
2018-08-17T18:31:32.763Z,25.90
2018-08-17T18:34:01.673Z,25.80
2018-08-17T18:36:30.560Z,25.80
2018-08-17T18:38:59.546Z,25.80
2018-08-17T18:41:28.393Z,25.70
2018-08-17T18:43:57.467Z,25.70
2018-08-17T18:46:26.331Z,25.60
2018-08-17T18:48:55.159Z,25.50
2018-08-17T18:51:24.008Z,25.40
2018-08-17T18:53:52.827Z,25.40
2018-08-17T18:56:21.670Z,25.30
2018-08-17T18:58:50.528Z,25.20
2018-08-17T19:01:19.452Z,25.20
2018-08-17T19:03:48.371Z,25.00
2018-08-17T19:06:17.219Z,25.00
2018-08-17T19:08:46.047Z,25.00
2018-08-17T19:11:15.891Z,24.90
2018-08-17T19:13:44.738Z,24.80
2018-08-17T19:16:13.668Z,24.80
2018-08-17T19:18:42.451Z,24.70
2018-08-17T19:21:12.843Z,24.60
2018-08-17T19:23:42.598Z,24.50
2018-08-17T19:26:11.907Z,24.40
2018-08-17T19:28:40.857Z,24.40
2018-08-17T19:31:09.703Z,24.30
2018-08-17T19:33:38.527Z,24.30
2018-08-17T19:36:07.406Z,24.20
2018-08-17T19:38:38.768Z,24.20
2018-08-17T19:41:08.471Z,24.10
2018-08-17T19:43:38.032Z,24.00
2018-08-17T19:46:07.208Z,24.00
2018-08-17T19:48:36.632Z,23.90
2018-08-17T19:51:11.231Z,23.90
2018-08-17T19:53:40.080Z,23.90
2018-08-17T19:56:09.047Z,23.90
2018-08-17T19:58:37.880Z,23.80
2018-08-17T20:01:06.980Z,23.80
2018-08-17T20:03:35.854Z,23.80
2018-08-17T20:06:04.761Z,23.80
2018-08-17T20:08:33.582Z,23.70
2018-08-17T20:11:02.394Z,23.60
2018-08-17T20:13:31.255Z,23.50
2018-08-17T20:16:00.087Z,23.50
2018-08-17T20:18:28.944Z,23.50
2018-08-17T20:20:58.770Z,23.50
2018-08-17T20:23:27.596Z,23.40
2018-08-17T20:25:56.602Z,23.40
2018-08-17T20:28:28.932Z,23.40
2018-08-17T20:30:57.851Z,23.40
2018-08-17T20:33:27.815Z,23.30
2018-08-17T20:35:57.210Z,23.30
2018-08-17T20:38:26.059Z,23.20
2018-08-17T20:40:59.287Z,23.10
2018-08-17T20:43:28.337Z,23.10
2018-08-17T20:45:57.243Z,23.10
2018-08-17T20:48:26.083Z,23.00
2018-08-17T20:50:54.935Z,22.90
2018-08-17T20:53:23.779Z,22.90
2018-08-17T20:55:52.665Z,22.90
2018-08-17T20:58:21.512Z,22.90
2018-08-17T21:00:50.405Z,22.90
2018-08-17T21:03:19.251Z,22.90
2018-08-17T21:05:48.232Z,22.90
2018-08-17T21:08:17.095Z,22.80
2018-08-17T21:10:46.030Z,22.70
2018-08-17T21:13:14.957Z,22.60
2018-08-17T21:15:43.811Z,22.60
2018-08-17T21:18:12.687Z,22.50
2018-08-17T21:20:41.515Z,22.50
2018-08-17T21:23:10.380Z,22.50
2018-08-17T21:25:39.268Z,22.50
2018-08-17T21:28:08.115Z,22.50
2018-08-17T21:30:36.939Z,22.50
2018-08-17T21:33:05.800Z,22.50
2018-08-17T21:35:34.643Z,22.50
2018-08-17T21:38:04.363Z,22.40
2018-08-17T21:40:33.263Z,22.40
2018-08-17T21:43:02.103Z,22.40
2018-08-17T21:45:30.984Z,22.40
2018-08-17T21:47:59.977Z,22.40
2018-08-17T21:50:28.762Z,22.30
2018-08-17T21:52:57.619Z,22.30
2018-08-17T21:55:26.486Z,22.20
2018-08-17T21:57:55.361Z,22.20
2018-08-17T22:00:32.997Z,22.20
2018-08-17T22:03:05.642Z,22.10
2018-08-17T22:05:34.631Z,22.00
2018-08-17T22:08:03.474Z,22.00
2018-08-17T22:10:32.363Z,22.00
2018-08-17T22:13:01.190Z,21.90
2018-08-17T22:15:30.650Z,21.90
2018-08-17T22:17:59.535Z,21.90
2018-08-17T22:20:28.375Z,21.90
2018-08-17T22:22:58.525Z,21.90
2018-08-17T22:25:27.378Z,21.80
2018-08-17T22:27:56.250Z,21.80
2018-08-17T22:30:25.918Z,21.80
2018-08-17T22:32:54.787Z,21.80
2018-08-17T22:35:23.714Z,21.80
2018-08-17T22:37:52.514Z,21.80
2018-08-17T22:40:21.355Z,21.80
2018-08-17T22:42:50.605Z,21.80
2018-08-17T22:45:19.503Z,21.80
2018-08-17T22:47:48.359Z,21.80
2018-08-17T22:50:17.195Z,21.80
2018-08-17T22:52:46.284Z,21.80
2018-08-17T22:55:15.165Z,21.70
2018-08-17T22:57:44.031Z,21.70
2018-08-17T23:00:27.103Z,21.70
2018-08-17T23:02:57.284Z,21.70
2018-08-17T23:05:31.341Z,21.70
2018-08-17T23:08:00.195Z,21.70
2018-08-17T23:10:29.263Z,21.60
2018-08-17T23:12:58.483Z,21.60
2018-08-17T23:15:27.428Z,21.60
2018-08-17T23:17:57.663Z,21.50
2018-08-17T23:20:32.072Z,21.50
2018-08-17T23:23:01.717Z,21.50
2018-08-17T23:25:30.822Z,21.50
2018-08-17T23:27:59.762Z,21.40
2018-08-17T23:30:28.681Z,21.50
2018-08-17T23:32:57.578Z,21.40
2018-08-17T23:35:26.451Z,21.40
2018-08-17T23:37:55.279Z,21.40
2018-08-17T23:40:24.178Z,21.40
2018-08-17T23:42:53.039Z,21.30
2018-08-17T23:45:21.937Z,21.30
2018-08-17T23:47:50.758Z,21.30
2018-08-17T23:50:19.555Z,21.30
2018-08-17T23:52:48.463Z,21.30
2018-08-17T23:55:17.903Z,21.20
2018-08-17T23:57:46.795Z,21.20
